sensor_id;sensor_type;location;lat;lon;timestamp;temperature;humidity
64937;SHT30;51452;47.698;19.050;2022-08-05T00:01:37;24.92;47.53
64937;SHT30;51452;47.698;19.050;2022-08-05T00:04:03;24.94;48.04
64937;SHT30;51452;47.698;19.050;2022-08-05T00:06:29;24.92;47.65
64937;SHT30;51452;47.698;19.050;2022-08-05T00:08:54;24.95;47.05
64937;SHT30;51452;47.698;19.050;2022-08-05T00:11:19;24.85;48.22
64937;SHT30;51452;47.698;19.050;2022-08-05T00:13:45;24.78;48.39
64937;SHT30;51452;47.698;19.050;2022-08-05T00:16:13;24.75;47.72
64937;SHT30;51452;47.698;19.050;2022-08-05T00:18:41;24.63;48.52
64937;SHT30;51452;47.698;19.050;2022-08-05T00:21:08;24.61;48.67
64937;SHT30;51452;47.698;19.050;2022-08-05T00:23:33;24.55;48.89
64937;SHT30;51452;47.698;19.050;2022-08-05T00:25:59;24.53;48.79
64937;SHT30;51452;47.698;19.050;2022-08-05T00:28:24;24.54;48.93
64937;SHT30;51452;47.698;19.050;2022-08-05T00:30:49;24.53;47.48
64937;SHT30;51452;47.698;19.050;2022-08-05T00:33:15;24.53;47.56
64937;SHT30;51452;47.698;19.050;2022-08-05T00:35:40;24.51;48.69
64937;SHT30;51452;47.698;19.050;2022-08-05T00:38:06;24.48;47.72
64937;SHT30;51452;47.698;19.050;2022-08-05T00:40:31;24.45;48.75
64937;SHT30;51452;47.698;19.050;2022-08-05T00:43:00;24.48;48.61
64937;SHT30;51452;47.698;19.050;2022-08-05T00:45:26;24.44;48.26
64937;SHT30;51452;47.698;19.050;2022-08-05T00:47:52;24.45;47.70
64937;SHT30;51452;47.698;19.050;2022-08-05T00:50:17;24.47;47.12
64937;SHT30;51452;47.698;19.050;2022-08-05T00:52:43;24.47;47.39
64937;SHT30;51452;47.698;19.050;2022-08-05T00:55:08;24.43;48.68
64937;SHT30;51452;47.698;19.050;2022-08-05T00:57:33;24.41;50.07
64937;SHT30;51452;47.698;19.050;2022-08-05T00:59:59;24.40;49.41
64937;SHT30;51452;47.698;19.050;2022-08-05T01:02:24;24.36;50.30
64937;SHT30;51452;47.698;19.050;2022-08-05T01:04:49;24.30;50.30
64937;SHT30;51452;47.698;19.050;2022-08-05T01:07:15;24.21;50.95
64937;SHT30;51452;47.698;19.050;2022-08-05T01:09:40;24.18;51.05
64937;SHT30;51452;47.698;19.050;2022-08-05T01:12:08;24.14;50.95
64937;SHT30;51452;47.698;19.050;2022-08-05T01:14:51;24.09;50.79
64937;SHT30;51452;47.698;19.050;2022-08-05T01:17:37;24.06;50.21
64937;SHT30;51452;47.698;19.050;2022-08-05T01:28:45;23.85;52.40
64937;SHT30;51452;47.698;19.050;2022-08-05T01:31:32;23.80;51.95
64937;SHT30;51452;47.698;19.050;2022-08-05T01:36:43;23.80;50.65
64937;SHT30;51452;47.698;19.050;2022-08-05T01:39:12;23.85;48.97
64937;SHT30;51452;47.698;19.050;2022-08-05T01:41:39;23.90;48.54
64937;SHT30;51452;47.698;19.050;2022-08-05T01:44:07;23.93;48.77
64937;SHT30;51452;47.698;19.050;2022-08-05T01:46:33;23.95;49.79
64937;SHT30;51452;47.698;19.050;2022-08-05T01:49:00;23.93;49.93
64937;SHT30;51452;47.698;19.050;2022-08-05T01:51:27;23.90;52.79
64937;SHT30;51452;47.698;19.050;2022-08-05T01:53:56;23.87;52.60
64937;SHT30;51452;47.698;19.050;2022-08-05T01:56:26;23.80;53.75
64937;SHT30;51452;47.698;19.050;2022-08-05T01:58:53;23.73;53.09
64937;SHT30;51452;47.698;19.050;2022-08-05T02:01:20;23.73;52.68
64937;SHT30;51452;47.698;19.050;2022-08-05T02:03:47;23.65;54.81
64937;SHT30;51452;47.698;19.050;2022-08-05T02:06:15;23.62;54.38
64937;SHT30;51452;47.698;19.050;2022-08-05T02:08:41;23.56;54.85
64937;SHT30;51452;47.698;19.050;2022-08-05T02:11:09;23.52;56.20
64937;SHT30;51452;47.698;19.050;2022-08-05T02:13:58;23.37;56.49
64937;SHT30;51452;47.698;19.050;2022-08-05T02:16:27;23.38;56.16
64937;SHT30;51452;47.698;19.050;2022-08-05T02:19:28;23.31;54.69
64937;SHT30;51452;47.698;19.050;2022-08-05T02:22:12;23.27;55.55
64937;SHT30;51452;47.698;19.050;2022-08-05T02:24:40;23.29;55.65
64937;SHT30;51452;47.698;19.050;2022-08-05T02:27:11;23.21;55.76
64937;SHT30;51452;47.698;19.050;2022-08-05T02:29:40;23.15;55.83
64937;SHT30;51452;47.698;19.050;2022-08-05T02:32:08;23.12;55.91
64937;SHT30;51452;47.698;19.050;2022-08-05T02:34:36;23.14;56.15
64937;SHT30;51452;47.698;19.050;2022-08-05T02:37:03;23.11;56.18
64937;SHT30;51452;47.698;19.050;2022-08-05T02:39:34;23.07;55.35
64937;SHT30;51452;47.698;19.050;2022-08-05T02:42:02;23.04;56.43
64937;SHT30;51452;47.698;19.050;2022-08-05T02:44:29;23.03;57.75
64937;SHT30;51452;47.698;19.050;2022-08-05T02:46:56;22.93;58.16
64937;SHT30;51452;47.698;19.050;2022-08-05T02:49:24;22.86;57.29
64937;SHT30;51452;47.698;19.050;2022-08-05T02:51:50;22.80;56.84
64937;SHT30;51452;47.698;19.050;2022-08-05T02:54:17;22.78;54.38
64937;SHT30;51452;47.698;19.050;2022-08-05T02:56:44;22.81;55.96
64937;SHT30;51452;47.698;19.050;2022-08-05T02:59:10;22.78;54.82
64937;SHT30;51452;47.698;19.050;2022-08-05T03:01:38;22.84;52.85
64937;SHT30;51452;47.698;19.050;2022-08-05T03:04:10;22.86;56.13
64937;SHT30;51452;47.698;19.050;2022-08-05T03:06:37;22.81;57.39
64937;SHT30;51452;47.698;19.050;2022-08-05T03:09:04;22.83;56.44
64937;SHT30;51452;47.698;19.050;2022-08-05T03:11:29;22.80;56.45
64937;SHT30;51452;47.698;19.050;2022-08-05T03:13:55;22.81;55.39
64937;SHT30;51452;47.698;19.050;2022-08-05T03:16:20;22.81;55.71
64937;SHT30;51452;47.698;19.050;2022-08-05T03:18:46;22.84;55.38
64937;SHT30;51452;47.698;19.050;2022-08-05T03:21:12;22.86;54.06
64937;SHT30;51452;47.698;19.050;2022-08-05T03:23:40;22.84;55.76
64937;SHT30;51452;47.698;19.050;2022-08-05T03:26:06;22.90;54.24
64937;SHT30;51452;47.698;19.050;2022-08-05T03:28:32;22.90;55.42
64937;SHT30;51452;47.698;19.050;2022-08-05T03:30:59;22.86;55.91
64937;SHT30;51452;47.698;19.050;2022-08-05T03:33:27;22.90;53.87
64937;SHT30;51452;47.698;19.050;2022-08-05T03:35:54;22.93;55.00
64937;SHT30;51452;47.698;19.050;2022-08-05T03:38:21;22.96;55.25
64937;SHT30;51452;47.698;19.050;2022-08-05T03:40:47;22.96;54.08
64937;SHT30;51452;47.698;19.050;2022-08-05T03:43:12;22.93;54.61
64937;SHT30;51452;47.698;19.050;2022-08-05T03:45:37;22.97;55.12
64937;SHT30;51452;47.698;19.050;2022-08-05T03:48:03;23.03;55.75
64937;SHT30;51452;47.698;19.050;2022-08-05T03:50:40;22.96;56.54
64937;SHT30;51452;47.698;19.050;2022-08-05T03:53:11;22.88;56.45
64937;SHT30;51452;47.698;19.050;2022-08-05T03:55:45;22.86;56.23
64937;SHT30;51452;47.698;19.050;2022-08-05T03:58:15;22.71;56.33
64937;SHT30;51452;47.698;19.050;2022-08-05T04:00:43;22.71;56.42
64937;SHT30;51452;47.698;19.050;2022-08-05T04:03:10;22.74;56.53
64937;SHT30;51452;47.698;19.050;2022-08-05T04:05:37;22.76;55.60
64937;SHT30;51452;47.698;19.050;2022-08-05T04:08:06;22.71;53.32
64937;SHT30;51452;47.698;19.050;2022-08-05T04:10:32;22.76;56.58
64937;SHT30;51452;47.698;19.050;2022-08-05T04:12:58;22.76;56.34
64937;SHT30;51452;47.698;19.050;2022-08-05T04:15:27;22.76;56.99
64937;SHT30;51452;47.698;19.050;2022-08-05T04:17:53;22.74;56.91
64937;SHT30;51452;47.698;19.050;2022-08-05T04:20:20;22.77;55.70
64937;SHT30;51452;47.698;19.050;2022-08-05T04:22:46;22.83;55.68
64937;SHT30;51452;47.698;19.050;2022-08-05T04:25:11;22.87;56.36
64937;SHT30;51452;47.698;19.050;2022-08-05T04:27:37;22.90;56.46
64937;SHT30;51452;47.698;19.050;2022-08-05T04:30:03;22.96;57.04
64937;SHT30;51452;47.698;19.050;2022-08-05T04:32:29;22.97;57.89
64937;SHT30;51452;47.698;19.050;2022-08-05T04:34:54;22.98;58.65
64937;SHT30;51452;47.698;19.050;2022-08-05T04:37:20;23.01;58.68
64937;SHT30;51452;47.698;19.050;2022-08-05T04:39:45;23.04;58.52
64937;SHT30;51452;47.698;19.050;2022-08-05T04:42:10;23.08;59.13
64937;SHT30;51452;47.698;19.050;2022-08-05T04:44:36;23.14;59.38
64937;SHT30;51452;47.698;19.050;2022-08-05T04:47:01;23.19;59.44
64937;SHT30;51452;47.698;19.050;2022-08-05T04:49:26;23.21;58.69
64937;SHT30;51452;47.698;19.050;2022-08-05T04:51:52;23.28;57.55
64937;SHT30;51452;47.698;19.050;2022-08-05T04:54:17;23.31;57.94
64937;SHT30;51452;47.698;19.050;2022-08-05T04:56:44;23.37;58.16
64937;SHT30;51452;47.698;19.050;2022-08-05T04:59:10;23.44;57.94
64937;SHT30;51452;47.698;19.050;2022-08-05T05:01:36;23.49;57.71
64937;SHT30;51452;47.698;19.050;2022-08-05T05:04:01;23.59;57.89
64937;SHT30;51452;47.698;19.050;2022-08-05T05:06:26;23.69;57.48
64937;SHT30;51452;47.698;19.050;2022-08-05T05:08:52;23.73;55.63
64937;SHT30;51452;47.698;19.050;2022-08-05T05:11:17;23.83;57.38
64937;SHT30;51452;47.698;19.050;2022-08-05T05:13:43;23.92;54.20
64937;SHT30;51452;47.698;19.050;2022-08-05T05:16:08;23.97;56.66
64937;SHT30;51452;47.698;19.050;2022-08-05T05:18:34;24.06;56.66
64937;SHT30;51452;47.698;19.050;2022-08-05T05:20:59;24.14;56.39
64937;SHT30;51452;47.698;19.050;2022-08-05T05:23:25;24.20;56.98
64937;SHT30;51452;47.698;19.050;2022-08-05T05:25:50;24.21;56.86
64937;SHT30;51452;47.698;19.050;2022-08-05T05:28:15;24.31;55.94
64937;SHT30;51452;47.698;19.050;2022-08-05T05:30:41;24.36;55.84
64937;SHT30;51452;47.698;19.050;2022-08-05T05:33:07;24.41;55.60
64937;SHT30;51452;47.698;19.050;2022-08-05T05:35:33;24.45;55.18
64937;SHT30;51452;47.698;19.050;2022-08-05T05:38:00;24.54;55.52
64937;SHT30;51452;47.698;19.050;2022-08-05T05:40:28;24.61;55.52
64937;SHT30;51452;47.698;19.050;2022-08-05T05:42:54;24.65;55.23
64937;SHT30;51452;47.698;19.050;2022-08-05T05:45:20;24.72;53.66
64937;SHT30;51452;47.698;19.050;2022-08-05T05:47:46;24.82;54.56
64937;SHT30;51452;47.698;19.050;2022-08-05T05:50:14;24.89;54.28
64937;SHT30;51452;47.698;19.050;2022-08-05T05:52:40;24.95;54.39
64937;SHT30;51452;47.698;19.050;2022-08-05T05:55:08;25.01;53.84
64937;SHT30;51452;47.698;19.050;2022-08-05T05:57:35;25.06;52.54
64937;SHT30;51452;47.698;19.050;2022-08-05T06:00:00;25.18;51.25
64937;SHT30;51452;47.698;19.050;2022-08-05T06:02:26;25.23;51.82
64937;SHT30;51452;47.698;19.050;2022-08-05T06:04:51;25.25;49.61
64937;SHT30;51452;47.698;19.050;2022-08-05T06:07:17;25.37;47.50
64937;SHT30;51452;47.698;19.050;2022-08-05T06:09:43;25.50;50.10
64937;SHT30;51452;47.698;19.050;2022-08-05T06:12:08;25.43;48.70
64937;SHT30;51452;47.698;19.050;2022-08-05T06:14:33;25.63;48.29
64937;SHT30;51452;47.698;19.050;2022-08-05T06:16:59;25.73;49.74
64937;SHT30;51452;47.698;19.050;2022-08-05T06:19:25;25.80;49.10
64937;SHT30;51452;47.698;19.050;2022-08-05T06:21:50;25.85;47.29
64937;SHT30;51452;47.698;19.050;2022-08-05T06:24:16;25.91;47.31
64937;SHT30;51452;47.698;19.050;2022-08-05T06:26:42;26.01;48.00
64937;SHT30;51452;47.698;19.050;2022-08-05T06:29:07;26.09;48.21
64937;SHT30;51452;47.698;19.050;2022-08-05T06:31:33;26.15;47.07
64937;SHT30;51452;47.698;19.050;2022-08-05T06:33:58;26.21;47.40
64937;SHT30;51452;47.698;19.050;2022-08-05T06:36:23;26.22;45.92
64937;SHT30;51452;47.698;19.050;2022-08-05T06:38:49;26.13;43.80
64937;SHT30;51452;47.698;19.050;2022-08-05T06:41:19;26.21;42.52
64937;SHT30;51452;47.698;19.050;2022-08-05T06:43:45;26.34;42.29
64937;SHT30;51452;47.698;19.050;2022-08-05T06:46:10;26.42;41.80
64937;SHT30;51452;47.698;19.050;2022-08-05T06:48:36;26.45;42.61
64937;SHT30;51452;47.698;19.050;2022-08-05T06:51:04;26.56;42.67
64937;SHT30;51452;47.698;19.050;2022-08-05T06:53:30;26.68;41.80
64937;SHT30;51452;47.698;19.050;2022-08-05T06:55:59;26.63;43.75
64937;SHT30;51452;47.698;19.050;2022-08-05T06:58:26;26.79;40.82
64937;SHT30;51452;47.698;19.050;2022-08-05T07:00:51;26.90;41.29
64937;SHT30;51452;47.698;19.050;2022-08-05T07:03:17;26.90;38.86
64937;SHT30;51452;47.698;19.050;2022-08-05T07:05:43;26.93;39.21
64937;SHT30;51452;47.698;19.050;2022-08-05T07:08:08;26.97;39.19
64937;SHT30;51452;47.698;19.050;2022-08-05T07:10:34;26.96;38.27
64937;SHT30;51452;47.698;19.050;2022-08-05T07:12:59;27.07;39.82
64937;SHT30;51452;47.698;19.050;2022-08-05T07:15:43;27.13;38.45
64937;SHT30;51452;47.698;19.050;2022-08-05T07:18:27;27.24;39.17
64937;SHT30;51452;47.698;19.050;2022-08-05T07:20:53;27.27;38.85
64937;SHT30;51452;47.698;19.050;2022-08-05T07:23:18;27.26;38.72
64937;SHT30;51452;47.698;19.050;2022-08-05T07:25:43;27.33;38.67
64937;SHT30;51452;47.698;19.050;2022-08-05T07:28:09;27.44;38.83
64937;SHT30;51452;47.698;19.050;2022-08-05T07:30:36;27.35;38.08
64937;SHT30;51452;47.698;19.050;2022-08-05T07:33:03;27.38;36.57
64937;SHT30;51452;47.698;19.050;2022-08-05T07:35:28;27.23;38.31
64937;SHT30;51452;47.698;19.050;2022-08-05T07:37:53;27.53;40.15
64937;SHT30;51452;47.698;19.050;2022-08-05T07:40:19;27.55;37.96
64937;SHT30;51452;47.698;19.050;2022-08-05T07:42:46;27.69;38.97
64937;SHT30;51452;47.698;19.050;2022-08-05T07:45:11;27.75;38.88
64937;SHT30;51452;47.698;19.050;2022-08-05T07:47:37;27.82;38.78
64937;SHT30;51452;47.698;19.050;2022-08-05T07:50:02;27.85;38.25
64937;SHT30;51452;47.698;19.050;2022-08-05T07:52:28;27.89;37.72
64937;SHT30;51452;47.698;19.050;2022-08-05T07:54:53;27.96;38.38
64937;SHT30;51452;47.698;19.050;2022-08-05T07:57:19;28.02;38.94
64937;SHT30;51452;47.698;19.050;2022-08-05T07:59:44;27.81;37.73
64937;SHT30;51452;47.698;19.050;2022-08-05T08:02:10;27.98;41.19
64937;SHT30;51452;47.698;19.050;2022-08-05T08:04:35;28.13;40.33
64937;SHT30;51452;47.698;19.050;2022-08-05T08:07:00;28.22;39.92
64937;SHT30;51452;47.698;19.050;2022-08-05T08:09:26;28.23;38.07
64937;SHT30;51452;47.698;19.050;2022-08-05T08:11:52;28.19;38.07
64937;SHT30;51452;47.698;19.050;2022-08-05T08:14:18;28.26;37.98
64937;SHT30;51452;47.698;19.050;2022-08-05T08:16:44;28.35;38.07
64937;SHT30;51452;47.698;19.050;2022-08-05T08:19:09;28.29;39.51
64937;SHT30;51452;47.698;19.050;2022-08-05T08:21:35;28.23;39.52
64937;SHT30;51452;47.698;19.050;2022-08-05T08:24:00;28.39;37.94
64937;SHT30;51452;47.698;19.050;2022-08-05T08:26:25;28.37;37.66
64937;SHT30;51452;47.698;19.050;2022-08-05T08:28:51;28.52;36.51
64937;SHT30;51452;47.698;19.050;2022-08-05T08:31:16;28.57;37.75
64937;SHT30;51452;47.698;19.050;2022-08-05T08:33:43;28.68;37.88
64937;SHT30;51452;47.698;19.050;2022-08-05T08:36:08;28.83;38.20
64937;SHT30;51452;47.698;19.050;2022-08-05T08:38:34;28.78;37.56
64937;SHT30;51452;47.698;19.050;2022-08-05T08:41:06;28.91;37.59
64937;SHT30;51452;47.698;19.050;2022-08-05T08:43:33;28.84;36.65
64937;SHT30;51452;47.698;19.050;2022-08-05T08:46:00;28.88;36.87
64937;SHT30;51452;47.698;19.050;2022-08-05T08:48:26;28.90;36.41
64937;SHT30;51452;47.698;19.050;2022-08-05T08:50:52;28.73;36.21
64937;SHT30;51452;47.698;19.050;2022-08-05T08:53:17;28.97;36.37
64937;SHT30;51452;47.698;19.050;2022-08-05T08:55:43;29.08;36.46
64937;SHT30;51452;47.698;19.050;2022-08-05T08:58:09;29.16;36.88
64937;SHT30;51452;47.698;19.050;2022-08-05T09:00:35;29.25;35.70
64937;SHT30;51452;47.698;19.050;2022-08-05T09:03:00;29.31;37.14
64937;SHT30;51452;47.698;19.050;2022-08-05T09:05:26;29.35;36.63
64937;SHT30;51452;47.698;19.050;2022-08-05T09:07:52;29.34;35.72
64937;SHT30;51452;47.698;19.050;2022-08-05T09:10:19;29.39;37.19
64937;SHT30;51452;47.698;19.050;2022-08-05T09:12:45;29.52;36.47
64937;SHT30;51452;47.698;19.050;2022-08-05T09:15:10;29.67;36.03
64937;SHT30;51452;47.698;19.050;2022-08-05T09:17:36;29.77;36.32
64937;SHT30;51452;47.698;19.050;2022-08-05T09:20:03;29.76;35.54
64937;SHT30;51452;47.698;19.050;2022-08-05T09:22:28;29.90;35.69
64937;SHT30;51452;47.698;19.050;2022-08-05T09:25:18;29.96;36.62
64937;SHT30;51452;47.698;19.050;2022-08-05T09:27:44;29.97;34.63
64937;SHT30;51452;47.698;19.050;2022-08-05T09:30:10;30.02;34.82
64937;SHT30;51452;47.698;19.050;2022-08-05T09:32:37;30.00;34.97
64937;SHT30;51452;47.698;19.050;2022-08-05T09:35:10;30.10;35.19
64937;SHT30;51452;47.698;19.050;2022-08-05T09:37:37;30.24;35.19
64937;SHT30;51452;47.698;19.050;2022-08-05T09:40:03;30.20;34.80
64937;SHT30;51452;47.698;19.050;2022-08-05T09:42:38;30.30;34.35
64937;SHT30;51452;47.698;19.050;2022-08-05T09:45:07;30.34;34.66
64937;SHT30;51452;47.698;19.050;2022-08-05T09:47:33;30.40;34.01
64937;SHT30;51452;47.698;19.050;2022-08-05T09:49:58;30.21;33.14
64937;SHT30;51452;47.698;19.050;2022-08-05T09:52:24;30.31;33.14
64937;SHT30;51452;47.698;19.050;2022-08-05T09:55:05;30.40;34.59
64937;SHT30;51452;47.698;19.050;2022-08-05T09:57:44;30.51;34.49
64937;SHT30;51452;47.698;19.050;2022-08-05T10:00:16;30.64;34.49
64937;SHT30;51452;47.698;19.050;2022-08-05T10:02:48;30.71;33.40
64937;SHT30;51452;47.698;19.050;2022-08-05T10:05:20;30.79;34.26
64937;SHT30;51452;47.698;19.050;2022-08-05T10:07:52;30.79;33.56
64937;SHT30;51452;47.698;19.050;2022-08-05T10:10:27;30.67;33.32
64937;SHT30;51452;47.698;19.050;2022-08-05T10:12:58;30.85;34.20
64937;SHT30;51452;47.698;19.050;2022-08-05T10:15:32;30.94;33.95
64937;SHT30;51452;47.698;19.050;2022-08-05T10:18:17;30.57;34.40
64937;SHT30;51452;47.698;19.050;2022-08-05T10:20:48;30.92;34.86
64937;SHT30;51452;47.698;19.050;2022-08-05T10:23:20;31.05;35.44
64937;SHT30;51452;47.698;19.050;2022-08-05T10:25:46;31.13;33.39
64937;SHT30;51452;47.698;19.050;2022-08-05T10:28:11;31.00;33.63
64937;SHT30;51452;47.698;19.050;2022-08-05T10:30:37;31.23;33.92
64937;SHT30;51452;47.698;19.050;2022-08-05T10:33:05;31.25;34.62
64937;SHT30;51452;47.698;19.050;2022-08-05T10:35:34;31.34;33.05
64937;SHT30;51452;47.698;19.050;2022-08-05T10:38:00;31.50;33.12
64937;SHT30;51452;47.698;19.050;2022-08-05T10:43:07;31.47;33.95
64937;SHT30;51452;47.698;19.050;2022-08-05T10:45:34;31.49;32.38
64937;SHT30;51452;47.698;19.050;2022-08-05T10:51:09;31.59;32.30
64937;SHT30;51452;47.698;19.050;2022-08-05T10:56:22;31.67;32.15
64937;SHT30;51452;47.698;19.050;2022-08-05T11:01:41;31.63;31.13
64937;SHT30;51452;47.698;19.050;2022-08-05T11:04:14;31.73;30.20
64937;SHT30;51452;47.698;19.050;2022-08-05T11:09:27;31.76;33.78
64937;SHT30;51452;47.698;19.050;2022-08-05T11:12:00;31.72;32.07
64937;SHT30;51452;47.698;19.050;2022-08-05T11:14:31;31.80;31.21
64937;SHT30;51452;47.698;19.050;2022-08-05T11:19:52;31.85;32.04
64937;SHT30;51452;47.698;19.050;2022-08-05T11:22:37;31.88;30.20
64937;SHT30;51452;47.698;19.050;2022-08-05T11:25:35;31.95;30.18
64937;SHT30;51452;47.698;19.050;2022-08-05T11:33:33;32.18;30.02
64937;SHT30;51452;47.698;19.050;2022-08-05T11:36:06;32.24;29.35
64937;SHT30;51452;47.698;19.050;2022-08-05T11:41:06;32.32;28.90
64937;SHT30;51452;47.698;19.050;2022-08-05T11:43:32;32.34;29.39
64937;SHT30;51452;47.698;19.050;2022-08-05T11:45:58;32.38;29.65
64937;SHT30;51452;47.698;19.050;2022-08-05T11:48:25;32.45;29.41
64937;SHT30;51452;47.698;19.050;2022-08-05T11:50:51;32.56;28.66
64937;SHT30;51452;47.698;19.050;2022-08-05T11:53:18;32.58;28.45
64937;SHT30;51452;47.698;19.050;2022-08-05T11:55:59;32.55;29.19
64937;SHT30;51452;47.698;19.050;2022-08-05T11:58:37;32.59;29.09
64937;SHT30;51452;47.698;19.050;2022-08-05T12:01:13;32.66;30.05
64937;SHT30;51452;47.698;19.050;2022-08-05T12:03:39;32.52;29.71
64937;SHT30;51452;47.698;19.050;2022-08-05T12:06:05;32.68;29.89
64937;SHT30;51452;47.698;19.050;2022-08-05T12:08:31;32.76;30.13
64937;SHT30;51452;47.698;19.050;2022-08-05T12:10:58;32.66;29.23
64937;SHT30;51452;47.698;19.050;2022-08-05T12:13:24;32.78;29.33
64937;SHT30;51452;47.698;19.050;2022-08-05T12:15:50;32.73;29.83
64937;SHT30;51452;47.698;19.050;2022-08-05T12:18:18;32.83;28.95
64937;SHT30;51452;47.698;19.050;2022-08-05T12:20:43;32.86;29.57
64937;SHT30;51452;47.698;19.050;2022-08-05T12:23:10;32.90;30.36
64937;SHT30;51452;47.698;19.050;2022-08-05T12:25:52;32.79;29.14
64937;SHT30;51452;47.698;19.050;2022-08-05T12:28:34;32.83;29.61
64937;SHT30;51452;47.698;19.050;2022-08-05T12:31:00;33.02;29.41
64937;SHT30;51452;47.698;19.050;2022-08-05T12:33:26;33.02;28.78
64937;SHT30;51452;47.698;19.050;2022-08-05T12:35:53;33.03;28.82
64937;SHT30;51452;47.698;19.050;2022-08-05T12:38:21;33.03;28.60
64937;SHT30;51452;47.698;19.050;2022-08-05T12:40:47;33.16;29.89
64937;SHT30;51452;47.698;19.050;2022-08-05T12:43:12;33.09;28.35
64937;SHT30;51452;47.698;19.050;2022-08-05T12:45:55;33.13;31.50
64937;SHT30;51452;47.698;19.050;2022-08-05T12:48:23;33.22;28.99
64937;SHT30;51452;47.698;19.050;2022-08-05T12:51:08;33.16;28.58
64937;SHT30;51452;47.698;19.050;2022-08-05T12:53:39;33.29;29.10
64937;SHT30;51452;47.698;19.050;2022-08-05T12:56:24;33.33;29.24
64937;SHT30;51452;47.698;19.050;2022-08-05T12:59:19;33.39;30.18
64937;SHT30;51452;47.698;19.050;2022-08-05T13:01:56;33.33;29.33
64937;SHT30;51452;47.698;19.050;2022-08-05T13:04:25;33.41;28.57
64937;SHT30;51452;47.698;19.050;2022-08-05T13:06:52;33.46;29.20
64937;SHT30;51452;47.698;19.050;2022-08-05T13:09:17;33.53;28.87
64937;SHT30;51452;47.698;19.050;2022-08-05T13:11:43;33.54;27.73
64937;SHT30;51452;47.698;19.050;2022-08-05T13:14:23;33.57;28.67
64937;SHT30;51452;47.698;19.050;2022-08-05T13:16:56;33.58;28.55
64937;SHT30;51452;47.698;19.050;2022-08-05T13:19:26;33.47;27.65
64937;SHT30;51452;47.698;19.050;2022-08-05T13:21:53;33.62;27.92
64937;SHT30;51452;47.698;19.050;2022-08-05T13:24:20;33.67;28.57
64937;SHT30;51452;47.698;19.050;2022-08-05T13:26:47;33.74;28.41
64937;SHT30;51452;47.698;19.050;2022-08-05T13:29:13;33.74;28.99
64937;SHT30;51452;47.698;19.050;2022-08-05T13:31:39;33.77;28.62
64937;SHT30;51452;47.698;19.050;2022-08-05T13:34:05;33.75;27.49
64937;SHT30;51452;47.698;19.050;2022-08-05T13:36:31;33.77;28.38
64937;SHT30;51452;47.698;19.050;2022-08-05T13:38:57;33.81;27.43
64937;SHT30;51452;47.698;19.050;2022-08-05T13:41:23;33.84;27.88
64937;SHT30;51452;47.698;19.050;2022-08-05T13:43:48;33.85;27.71
64937;SHT30;51452;47.698;19.050;2022-08-05T13:46:14;33.97;27.43
64937;SHT30;51452;47.698;19.050;2022-08-05T13:48:40;34.00;27.74
64937;SHT30;51452;47.698;19.050;2022-08-05T13:51:07;33.90;27.52
64937;SHT30;51452;47.698;19.050;2022-08-05T13:53:33;34.01;26.91
64937;SHT30;51452;47.698;19.050;2022-08-05T13:55:59;34.05;27.25
64937;SHT30;51452;47.698;19.050;2022-08-05T13:58:25;34.11;27.41
64937;SHT30;51452;47.698;19.050;2022-08-05T14:00:50;34.11;26.99
64937;SHT30;51452;47.698;19.050;2022-08-05T14:03:16;34.12;26.93
64937;SHT30;51452;47.698;19.050;2022-08-05T14:05:41;34.21;26.72
64937;SHT30;51452;47.698;19.050;2022-08-05T14:08:06;34.29;26.86
64937;SHT30;51452;47.698;19.050;2022-08-05T14:10:32;34.32;27.27
64937;SHT30;51452;47.698;19.050;2022-08-05T14:12:58;34.21;26.83
64937;SHT30;51452;47.698;19.050;2022-08-05T14:15:24;34.15;27.44
64937;SHT30;51452;47.698;19.050;2022-08-05T14:17:50;34.33;27.30
64937;SHT30;51452;47.698;19.050;2022-08-05T14:20:15;34.31;26.81
64937;SHT30;51452;47.698;19.050;2022-08-05T14:22:40;34.32;26.56
64937;SHT30;51452;47.698;19.050;2022-08-05T14:25:08;34.29;26.53
64937;SHT30;51452;47.698;19.050;2022-08-05T14:27:34;34.39;26.72
64937;SHT30;51452;47.698;19.050;2022-08-05T14:30:00;34.33;26.62
64937;SHT30;51452;47.698;19.050;2022-08-05T14:32:25;34.39;26.98
64937;SHT30;51452;47.698;19.050;2022-08-05T14:34:50;34.35;27.99
64937;SHT30;51452;47.698;19.050;2022-08-05T14:37:16;34.33;28.41
64937;SHT30;51452;47.698;19.050;2022-08-05T14:39:41;34.26;26.85
64937;SHT30;51452;47.698;19.050;2022-08-05T14:42:07;34.23;27.46
64937;SHT30;51452;47.698;19.050;2022-08-05T14:44:33;34.13;27.35
64937;SHT30;51452;47.698;19.050;2022-08-05T14:46:58;34.06;27.60
64937;SHT30;51452;47.698;19.050;2022-08-05T14:49:24;34.11;28.13
64937;SHT30;51452;47.698;19.050;2022-08-05T14:51:49;34.11;29.79
64937;SHT30;51452;47.698;19.050;2022-08-05T14:54:15;33.90;29.63
64937;SHT30;51452;47.698;19.050;2022-08-05T14:56:40;33.94;28.62
64937;SHT30;51452;47.698;19.050;2022-08-05T14:59:06;33.87;27.50
64937;SHT30;51452;47.698;19.050;2022-08-05T15:01:31;33.81;27.74
64937;SHT30;51452;47.698;19.050;2022-08-05T15:03:57;33.87;28.62
64937;SHT30;51452;47.698;19.050;2022-08-05T15:06:22;33.87;26.99
64937;SHT30;51452;47.698;19.050;2022-08-05T15:08:48;33.80;26.73
64937;SHT30;51452;47.698;19.050;2022-08-05T15:11:13;33.78;26.79
64937;SHT30;51452;47.698;19.050;2022-08-05T15:13:38;33.78;29.13
64937;SHT30;51452;47.698;19.050;2022-08-05T15:16:04;33.72;29.10
64937;SHT30;51452;47.698;19.050;2022-08-05T15:18:30;33.60;26.89
64937;SHT30;51452;47.698;19.050;2022-08-05T15:20:55;33.62;26.98
64937;SHT30;51452;47.698;19.050;2022-08-05T15:23:20;33.67;27.53
64937;SHT30;51452;47.698;19.050;2022-08-05T15:25:46;33.49;28.59
64937;SHT30;51452;47.698;19.050;2022-08-05T15:28:12;33.43;28.31
64937;SHT30;51452;47.698;19.050;2022-08-05T15:30:38;33.51;26.91
64937;SHT30;51452;47.698;19.050;2022-08-05T15:33:03;33.54;27.40
64937;SHT30;51452;47.698;19.050;2022-08-05T15:35:29;33.40;27.59
64937;SHT30;51452;47.698;19.050;2022-08-05T15:37:54;33.50;27.73
64937;SHT30;51452;47.698;19.050;2022-08-05T15:40:20;33.46;27.33
64937;SHT30;51452;47.698;19.050;2022-08-05T15:42:45;33.37;27.75
64937;SHT30;51452;47.698;19.050;2022-08-05T15:45:11;33.40;27.88
64937;SHT30;51452;47.698;19.050;2022-08-05T15:47:38;33.37;26.82
64937;SHT30;51452;47.698;19.050;2022-08-05T15:50:04;33.39;27.72
64937;SHT30;51452;47.698;19.050;2022-08-05T15:52:30;33.41;27.55
64937;SHT30;51452;47.698;19.050;2022-08-05T15:54:57;33.34;27.37